createdAt,value
2022-11-03T00:01:41.489Z,101661.31
2022-11-03T00:04:12.005Z,101659.63
2022-11-03T00:06:41.715Z,101663.28
2022-11-03T00:09:12.385Z,101658.94
2022-11-03T00:11:43.240Z,101653.84
2022-11-03T00:14:13.027Z,101652.84
2022-11-03T00:16:44.203Z,101660.63
2022-11-03T00:19:14.716Z,101660.88
2022-11-03T00:21:44.153Z,101656.38
2022-11-03T00:24:14.210Z,101660.88
2022-11-03T00:26:43.607Z,101654.81
2022-11-03T00:29:14.768Z,101646.38
2022-11-03T00:31:46.958Z,101653.19
2022-11-03T00:34:15.309Z,101661.44
2022-11-03T00:36:46.084Z,101657.09
2022-11-03T00:39:14.499Z,101654.63
2022-11-03T00:41:43.947Z,101657.38
2022-11-03T00:44:13.476Z,101658.88
2022-11-03T00:46:45.236Z,101648.44
2022-11-03T00:49:13.635Z,101645.66
2022-11-03T00:51:42.167Z,101646.34
2022-11-03T00:54:10.876Z,101647.25
2022-11-03T00:56:41.028Z,101645.75
2022-11-03T00:59:11.984Z,101658.13
2022-11-03T01:01:45.887Z,101657.25
2022-11-03T01:04:36.064Z,101660.03
2022-11-03T01:07:06.125Z,101651.16
2022-11-03T01:09:38.103Z,101654.19
2022-11-03T01:12:09.950Z,101652.44
2022-11-03T01:14:41.666Z,101643.78
2022-11-03T01:17:14.952Z,101643.03
2022-11-03T01:19:45.456Z,101643.91
2022-11-03T01:22:15.599Z,101638.81
2022-11-03T01:24:45.058Z,101631.06
2022-11-03T01:27:18.399Z,101630.16
2022-11-03T01:29:47.377Z,101633.63
2022-11-03T01:32:16.403Z,101624.84
2022-11-03T01:34:46.943Z,101621.25
2022-11-03T01:37:15.197Z,101624.84
2022-11-03T01:39:44.627Z,101631.00
2022-11-03T01:42:14.677Z,101631.84
2022-11-03T01:44:49.177Z,101619.41
2022-11-03T01:47:26.743Z,101625.06
2022-11-03T01:50:02.510Z,101627.41
2022-11-03T01:52:36.871Z,101623.56
2022-11-03T01:55:08.851Z,101622.91
2022-11-03T01:57:46.196Z,101618.41
2022-11-03T02:00:15.648Z,101612.63
2022-11-03T02:02:46.063Z,101613.81
2022-11-03T02:05:19.523Z,101611.84
2022-11-03T02:07:53.317Z,101616.25
2022-11-03T02:10:22.186Z,101611.78
2022-11-03T02:12:51.817Z,101616.00
2022-11-03T02:15:22.917Z,101606.09
2022-11-03T02:17:54.320Z,101606.22
2022-11-03T02:20:28.669Z,101606.22
2022-11-03T02:23:12.516Z,101593.06
2022-11-03T02:25:45.144Z,101599.38
2022-11-03T02:28:16.581Z,101589.69
2022-11-03T02:30:51.465Z,101601.88
2022-11-03T02:33:35.886Z,101592.88
2022-11-03T02:36:12.227Z,101600.69
2022-11-03T02:38:48.786Z,101602.13
2022-11-03T02:41:20.321Z,101609.31
2022-11-03T02:43:50.023Z,101600.34
2022-11-03T02:46:19.677Z,101608.34
2022-11-03T02:48:49.367Z,101606.44
2022-11-03T02:51:17.775Z,101612.66
2022-11-03T02:53:54.882Z,101604.88
2022-11-03T02:56:26.113Z,101602.34
2022-11-03T02:59:00.950Z,101594.47
2022-11-03T03:01:35.179Z,101583.31
2022-11-03T03:04:08.570Z,101594.03
2022-11-03T03:06:40.885Z,101571.34
2022-11-03T03:09:15.392Z,101577.72
2022-11-03T03:11:48.423Z,101574.47
2022-11-03T03:14:21.819Z,101577.16
2022-11-03T03:17:00.088Z,101578.63
2022-11-03T03:19:37.925Z,101570.78
2022-11-03T03:22:16.443Z,101562.88
2022-11-03T03:24:52.116Z,101549.97
2022-11-03T03:27:26.890Z,101542.28
2022-11-03T03:30:00.454Z,101531.59
2022-11-03T03:32:33.816Z,101531.59
2022-11-03T03:35:05.287Z,101525.03
2022-11-03T03:37:37.642Z,101533.63
2022-11-03T03:40:12.327Z,101533.38
2022-11-03T03:42:45.261Z,101535.13
2022-11-03T03:45:14.843Z,101541.69
2022-11-03T03:47:43.319Z,101532.50
2022-11-03T03:50:11.949Z,101527.03
2022-11-03T03:52:40.769Z,101541.22
2022-11-03T03:55:18.115Z,101544.63
2022-11-03T03:57:48.222Z,101540.66
2022-11-03T04:00:17.125Z,101542.75
2022-11-03T04:02:45.520Z,101549.50
2022-11-03T04:05:14.903Z,101544.22
2022-11-03T04:07:50.217Z,101552.19
2022-11-03T04:10:20.912Z,101550.25
2022-11-03T04:13:08.900Z,101553.13
2022-11-03T04:15:57.669Z,101535.41
2022-11-03T04:18:43.678Z,101541.25
2022-11-03T04:21:32.057Z,101543.16
2022-11-03T04:24:01.976Z,101550.50
2022-11-03T04:26:30.912Z,101551.81
2022-11-03T04:29:03.326Z,101539.47
2022-11-03T04:31:36.827Z,101544.47
2022-11-03T04:34:11.427Z,101549.50
2022-11-03T04:36:39.816Z,101549.31
2022-11-03T04:39:24.663Z,101545.16
2022-11-03T04:41:56.524Z,101541.72
2022-11-03T04:44:28.358Z,101536.75
2022-11-03T04:46:58.156Z,101537.53
2022-11-03T04:49:26.602Z,101528.91
2022-11-03T04:51:55.183Z,101536.81
2022-11-03T04:54:24.731Z,101528.06
2022-11-03T04:56:53.301Z,101528.88
2022-11-03T04:59:21.998Z,101514.00
2022-11-03T05:01:52.181Z,101520.41
2022-11-03T05:04:20.871Z,101511.03
2022-11-03T05:06:53.746Z,101506.59
2022-11-03T05:09:25.627Z,101511.88
2022-11-03T05:11:54.430Z,101506.25
2022-11-03T05:14:25.742Z,101508.88
2022-11-03T05:16:57.133Z,101502.41
2022-11-03T05:19:28.540Z,101508.69
2022-11-03T05:21:59.530Z,101490.34
2022-11-03T05:24:28.434Z,101489.50
2022-11-03T05:27:01.164Z,101484.53
2022-11-03T05:29:36.463Z,101485.13
2022-11-03T05:32:13.601Z,101482.72
2022-11-03T05:34:46.208Z,101481.72
2022-11-03T05:37:26.746Z,101485.91
2022-11-03T05:39:58.002Z,101486.09
2022-11-03T05:42:33.191Z,101492.16
2022-11-03T05:45:04.973Z,101486.03
2022-11-03T05:47:42.230Z,101482.69
2022-11-03T05:50:20.904Z,101483.41
2022-11-03T05:52:53.018Z,101475.91
2022-11-03T05:55:28.767Z,101469.72
2022-11-03T05:57:58.770Z,101468.69
2022-11-03T06:00:30.599Z,101459.22
2022-11-03T06:03:02.493Z,101461.44
2022-11-03T06:05:33.630Z,101462.22
2022-11-03T06:08:04.771Z,101451.06
2022-11-03T06:10:41.003Z,101458.88
2022-11-03T06:13:15.620Z,101456.97
2022-11-03T06:15:48.309Z,101452.53
2022-11-03T06:18:22.774Z,101461.38
2022-11-03T06:20:53.844Z,101455.88
2022-11-03T06:23:24.290Z,101460.91
2022-11-03T06:25:55.012Z,101476.03
2022-11-03T06:28:26.851Z,101471.47
2022-11-03T06:30:55.449Z,101473.00
2022-11-03T06:33:28.264Z,101477.00
2022-11-03T06:36:03.381Z,101478.31
2022-11-03T06:38:35.418Z,101486.88
2022-11-03T06:41:03.683Z,101485.78
2022-11-03T06:43:39.010Z,101482.84
2022-11-03T06:46:14.278Z,101469.56
2022-11-03T06:48:46.752Z,101464.56
2022-11-03T06:51:22.779Z,101473.41
2022-11-03T06:53:52.964Z,101474.00
2022-11-03T06:56:24.119Z,101465.28
2022-11-03T06:58:55.166Z,101466.22
2022-11-03T07:01:28.176Z,101463.59
2022-11-03T07:04:03.654Z,101458.69
2022-11-03T07:06:37.992Z,101458.72
2022-11-03T07:09:10.158Z,101464.06
2022-11-03T07:11:45.255Z,101461.25
2022-11-03T07:14:18.589Z,101459.28
2022-11-03T07:16:50.405Z,101460.78
2022-11-03T07:19:24.102Z,101459.06
2022-11-03T07:21:55.490Z,101459.91
2022-11-03T07:24:29.166Z,101463.84
2022-11-03T07:27:03.778Z,101462.75
2022-11-03T07:29:33.987Z,101459.72
2022-11-03T07:32:02.374Z,101450.75
2022-11-03T07:34:34.479Z,101454.00
2022-11-03T07:37:04.468Z,101445.31
2022-11-03T07:39:36.273Z,101439.75
2022-11-03T07:42:13.048Z,101434.63
2022-11-03T07:44:41.950Z,101425.53
2022-11-03T07:47:15.215Z,101421.56
2022-11-03T07:49:48.459Z,101408.41
2022-11-03T07:52:21.269Z,101413.84
2022-11-03T07:54:51.354Z,101397.06
2022-11-03T07:57:24.404Z,101386.06
2022-11-03T07:59:55.416Z,101384.78
2022-11-03T08:02:34.242Z,101384.25
2022-11-03T08:05:10.447Z,101384.97
2022-11-03T08:07:39.353Z,101382.78
2022-11-03T08:10:08.761Z,101383.78
2022-11-03T08:12:37.198Z,101393.06
2022-11-03T08:15:06.872Z,101370.66
2022-11-03T08:17:35.608Z,101373.69
2022-11-03T08:20:06.070Z,101361.69
2022-11-03T08:22:35.698Z,101359.19
2022-11-03T08:25:04.627Z,101344.97
2022-11-03T08:27:33.011Z,101347.47
2022-11-03T08:30:01.486Z,101350.22
2022-11-03T08:32:30.901Z,101342.81
2022-11-03T08:34:59.538Z,101348.44
2022-11-03T08:37:30.459Z,101338.84
2022-11-03T08:39:58.876Z,101339.78
2022-11-03T08:42:27.263Z,101329.63
2022-11-03T08:44:56.176Z,101323.34
2022-11-03T08:47:24.675Z,101326.41
2022-11-03T08:49:53.034Z,101315.75
2022-11-03T08:52:21.766Z,101320.75
2022-11-03T08:54:54.319Z,101312.53
2022-11-03T08:57:23.032Z,101315.84
2022-11-03T08:59:53.041Z,101313.59
2022-11-03T09:02:21.871Z,101315.22
2022-11-03T09:04:50.213Z,101316.38
2022-11-03T09:07:19.687Z,101312.13
2022-11-03T09:12:38.898Z,101304.91
2022-11-03T09:15:08.294Z,101302.91
2022-11-03T09:17:39.433Z,101298.63
2022-11-03T09:20:11.243Z,101292.34
2022-11-03T09:22:39.830Z,101291.56
2022-11-03T09:25:10.602Z,101287.31
2022-11-03T09:27:40.494Z,101285.41
2022-11-03T09:30:14.099Z,101281.13
2022-11-03T09:32:46.319Z,101277.50
2022-11-03T09:35:17.018Z,101269.31
2022-11-03T09:37:45.598Z,101277.50
2022-11-03T09:40:17.180Z,101277.50
2022-11-03T09:42:47.450Z,101273.91
2022-11-03T09:45:16.157Z,101262.28
2022-11-03T09:47:47.208Z,101264.03
2022-11-03T09:50:19.379Z,101262.34
2022-11-03T09:52:55.963Z,101258.31
2022-11-03T09:55:27.236Z,101263.44
2022-11-03T09:58:02.075Z,101245.97
2022-11-03T10:00:31.652Z,101251.41
2022-11-03T10:02:59.955Z,101247.06
2022-11-03T10:05:29.086Z,101235.06
2022-11-03T10:08:00.385Z,101235.06
2022-11-03T10:10:29.957Z,101234.03
2022-11-03T10:13:01.727Z,101235.25
2022-11-03T10:15:34.098Z,101221.72
2022-11-03T10:18:05.535Z,101221.19
2022-11-03T10:20:34.342Z,101223.41
2022-11-03T10:23:02.698Z,101214.00
2022-11-03T10:25:37.324Z,101214.34
2022-11-03T10:28:20.102Z,101212.38
2022-11-03T10:31:13.283Z,101197.81
2022-11-03T10:33:43.362Z,101198.00
2022-11-03T10:36:27.001Z,101194.50
2022-11-03T10:38:55.752Z,101192.66
2022-11-03T10:41:25.660Z,101185.63
2022-11-03T10:44:08.331Z,101187.97
2022-11-03T10:46:50.163Z,101184.25
2022-11-03T10:49:21.440Z,101179.59
2022-11-03T10:51:52.591Z,101176.63
2022-11-03T10:54:22.912Z,101178.81
2022-11-03T10:56:53.646Z,101171.69
2022-11-03T10:59:32.231Z,101175.25
2022-11-03T11:02:01.605Z,101168.91
2022-11-03T11:04:30.276Z,101156.75
2022-11-03T11:06:59.907Z,101157.44
2022-11-03T11:09:30.263Z,101150.38
2022-11-03T11:12:03.810Z,101140.78
2022-11-03T11:14:55.137Z,101139.44
2022-11-03T11:18:12.663Z,101134.50
2022-11-03T11:20:42.646Z,101131.06
2022-11-03T11:23:52.885Z,101129.72
2022-11-03T11:26:42.677Z,101122.72
2022-11-03T11:29:45.891Z,101123.09
2022-11-03T11:32:53.523Z,101112.94
2022-11-03T11:36:05.568Z,101113.00
2022-11-03T11:39:11.355Z,101103.13
2022-11-03T11:42:09.468Z,101099.16
2022-11-03T11:45:13.435Z,101101.66
2022-11-03T11:47:52.595Z,101093.69
2022-11-03T11:50:32.662Z,101097.06
2022-11-03T11:53:14.770Z,101094.78
2022-11-03T11:55:47.046Z,101093.69
2022-11-03T11:58:23.874Z,101090.41
2022-11-03T12:01:04.858Z,101084.75
2022-11-03T12:03:49.010Z,101076.03
2022-11-03T12:06:17.457Z,101073.88
2022-11-03T12:08:46.338Z,101068.91
2022-11-03T12:11:15.006Z,101066.50
2022-11-03T12:13:47.578Z,101070.84
2022-11-03T12:16:36.026Z,101056.38
2022-11-03T12:19:42.384Z,101051.81
2022-11-03T12:22:12.539Z,101052.41
2022-11-03T12:24:51.041Z,101045.72
2022-11-03T12:27:43.759Z,101050.16
2022-11-03T12:30:20.107Z,101043.91
2022-11-03T12:32:49.074Z,101041.06
2022-11-03T12:35:19.095Z,101046.84
2022-11-03T12:37:47.866Z,101046.31
2022-11-03T12:40:17.014Z,101046.56
2022-11-03T12:42:46.013Z,101036.69
2022-11-03T12:45:18.830Z,101038.72
2022-11-03T12:47:48.224Z,101044.41
2022-11-03T12:50:34.917Z,101037.03
2022-11-03T12:53:03.280Z,101026.38
2022-11-03T12:55:31.996Z,101020.91
2022-11-03T12:58:00.762Z,101015.75
2022-11-03T13:00:29.918Z,101016.22
2022-11-03T13:02:58.713Z,101014.03
2022-11-03T13:05:28.090Z,101009.66
2022-11-03T13:07:58.039Z,101013.63
2022-11-03T13:10:29.617Z,101000.72
2022-11-03T13:12:58.224Z,101000.00
2022-11-03T13:15:26.699Z,100992.19
2022-11-03T13:18:12.840Z,100992.94
2022-11-03T13:20:43.202Z,100982.94
2022-11-03T13:23:15.138Z,100974.03
2022-11-03T13:25:46.776Z,100975.31
2022-11-03T13:28:15.207Z,100966.03
2022-11-03T13:30:43.814Z,100974.31
2022-11-03T13:33:12.209Z,100964.06
2022-11-03T13:35:40.723Z,100966.72
2022-11-03T13:38:11.004Z,100969.56
2022-11-03T13:41:01.167Z,100952.59
2022-11-03T13:43:30.319Z,100945.44
2022-11-03T13:46:02.501Z,100943.94
2022-11-03T13:49:31.857Z,100945.44
2022-11-03T13:51:21.799Z,100952.88
2022-11-03T13:59:31.806Z,100935.16
2022-11-03T14:04:53.576Z,100905.03
2022-11-03T14:07:22.344Z,100906.00
2022-11-03T14:09:50.719Z,100896.41
2022-11-03T14:12:32.088Z,100896.59
2022-11-03T14:15:01.661Z,100888.31
2022-11-03T14:17:29.965Z,100885.09
2022-11-03T14:20:03.733Z,100872.94
2022-11-03T14:22:33.947Z,100843.72
2022-11-03T14:25:02.486Z,100858.34
2022-11-03T14:27:33.206Z,100858.66
2022-11-03T14:30:01.488Z,100854.75
2022-11-03T14:32:30.003Z,100844.25
2022-11-03T14:34:59.515Z,100837.13
2022-11-03T14:37:28.837Z,100835.59
2022-11-03T14:39:58.563Z,100827.94
2022-11-03T14:42:25.846Z,100828.41
2022-11-03T14:44:55.981Z,100813.09
2022-11-03T14:47:25.836Z,100822.72
2022-11-03T14:49:54.051Z,100820.75
2022-11-03T14:52:22.358Z,100816.09
2022-11-03T14:54:52.288Z,100812.78
2022-11-03T14:57:20.621Z,100806.50
2022-11-03T14:59:53.187Z,100801.78
2022-11-03T15:02:24.223Z,100796.34
2022-11-03T15:04:55.924Z,100790.84
2022-11-03T15:07:25.672Z,100784.06
2022-11-03T15:09:55.085Z,100787.84
2022-11-03T15:12:26.986Z,100779.09
2022-11-03T15:14:57.261Z,100773.00
2022-11-03T15:17:27.313Z,100756.03
2022-11-03T15:19:56.628Z,100755.91
2022-11-03T15:25:16.877Z,100739.78
2022-11-03T15:27:48.335Z,100739.03
2022-11-03T15:30:17.694Z,100732.44
2022-11-03T15:32:47.936Z,100725.78
2022-11-03T15:35:18.246Z,100724.06
2022-11-03T15:37:47.862Z,100718.81
2022-11-03T15:40:17.493Z,100711.72
2022-11-03T15:42:49.889Z,100701.75
2022-11-03T15:45:19.001Z,100700.22
2022-11-03T15:47:49.303Z,100692.97
2022-11-03T15:50:18.126Z,100701.41
2022-11-03T15:52:46.388Z,100694.94
2022-11-03T15:55:15.283Z,100696.81
2022-11-03T15:57:43.571Z,100684.63
2022-11-03T16:00:14.002Z,100695.47
2022-11-03T16:02:44.481Z,100683.66
2022-11-03T16:05:15.151Z,100677.22
2022-11-03T16:07:46.070Z,100680.00
2022-11-03T16:10:14.511Z,100674.19
2022-11-03T16:12:44.310Z,100666.94
2022-11-03T16:15:12.670Z,100668.31
2022-11-03T16:17:45.352Z,100664.72
2022-11-03T16:20:16.465Z,100661.06
2022-11-03T16:22:45.241Z,100658.56
2022-11-03T16:25:16.602Z,100655.84
2022-11-03T16:27:49.492Z,100646.81
2022-11-03T16:30:18.787Z,100642.84
2022-11-03T16:32:49.615Z,100634.22
2022-11-03T16:35:23.225Z,100629.78
2022-11-03T16:37:51.596Z,100624.06
2022-11-03T16:40:20.351Z,100612.88
2022-11-03T16:42:49.702Z,100613.81
2022-11-03T16:45:20.064Z,100614.56
2022-11-03T16:47:50.423Z,100611.78
2022-11-03T16:50:20.895Z,100613.28
2022-11-03T16:52:50.741Z,100613.50
2022-11-03T16:55:20.509Z,100611.91
2022-11-03T16:57:50.511Z,100601.00
2022-11-03T17:00:21.814Z,100601.19
2022-11-03T17:02:51.464Z,100604.00
2022-11-03T17:05:22.093Z,100599.56
2022-11-03T17:07:54.238Z,100603.78
2022-11-03T17:10:22.775Z,100599.34
2022-11-03T17:12:51.323Z,100599.78
2022-11-03T17:15:19.718Z,100592.78
2022-11-03T17:17:48.390Z,100585.09
2022-11-03T17:20:20.849Z,100575.84
2022-11-03T17:22:52.966Z,100574.72
2022-11-03T17:25:21.258Z,100568.22
2022-11-03T17:27:53.299Z,100571.44
2022-11-03T17:30:23.425Z,100563.34
2022-11-03T17:32:54.903Z,100565.31
2022-11-03T17:35:33.649Z,100561.97
2022-11-03T17:38:14.107Z,100555.94
2022-11-03T17:40:43.752Z,100539.28
2022-11-03T17:43:21.089Z,100533.13
2022-11-03T17:45:49.972Z,100528.59
2022-11-03T17:48:20.538Z,100524.00
2022-11-03T17:50:51.631Z,100516.75
2022-11-03T17:53:38.494Z,100514.72
2022-11-03T17:56:29.158Z,100506.88
2022-11-03T17:58:59.546Z,100511.25
2022-11-03T18:01:29.362Z,100514.00
2022-11-03T18:03:58.717Z,100498.91
2022-11-03T18:06:26.952Z,100476.25
2022-11-03T18:08:59.492Z,100491.88
2022-11-03T18:11:47.908Z,100469.72
2022-11-03T18:14:20.189Z,100460.66
2022-11-03T18:16:49.479Z,100456.88
2022-11-03T18:19:20.605Z,100460.69
2022-11-03T18:21:52.261Z,100453.09
2022-11-03T18:24:22.754Z,100448.16
2022-11-03T18:26:51.204Z,100440.06
2022-11-03T18:29:19.707Z,100437.69
2022-11-03T18:31:50.820Z,100435.69
2022-11-03T18:34:23.019Z,100430.19
2022-11-03T18:36:52.808Z,100420.00
2022-11-03T18:39:26.969Z,100420.75
2022-11-03T18:41:58.583Z,100418.66
2022-11-03T18:44:29.834Z,100407.09
2022-11-03T18:46:59.867Z,100404.84
2022-11-03T18:49:33.097Z,100391.41
2022-11-03T18:52:09.863Z,100390.47
2022-11-03T18:54:42.285Z,100379.97
2022-11-03T18:57:12.362Z,100384.19
2022-11-03T18:59:44.683Z,100372.59
2022-11-03T19:02:18.635Z,100365.88
2022-11-03T19:04:49.082Z,100353.53
2022-11-03T19:07:24.207Z,100356.78
2022-11-03T19:09:55.011Z,100345.91
2022-11-03T19:12:23.755Z,100332.84
2022-11-03T19:14:52.518Z,100337.84
2022-11-03T19:17:24.927Z,100314.53
2022-11-03T19:19:54.594Z,100309.00
2022-11-03T19:22:24.370Z,100317.25
2022-11-03T19:24:54.875Z,100302.13
2022-11-03T19:27:27.857Z,100290.97
2022-11-03T19:29:58.213Z,100285.84
2022-11-03T19:32:30.636Z,100288.66
2022-11-03T19:35:02.817Z,100278.66
2022-11-03T19:37:35.785Z,100276.19
2022-11-03T19:40:09.400Z,100267.38
2022-11-03T19:42:37.212Z,100255.34
2022-11-03T19:45:09.217Z,100243.75
2022-11-03T19:47:47.831Z,100246.84
2022-11-03T19:50:23.084Z,100245.59
2022-11-03T19:52:51.831Z,100234.59
2022-11-03T19:55:24.625Z,100239.47
2022-11-03T19:57:53.260Z,100239.31
2022-11-03T20:00:24.182Z,100226.38
2022-11-03T20:02:52.686Z,100226.81
2022-11-03T20:05:22.033Z,100238.09
2022-11-03T20:07:50.566Z,100227.41
2022-11-03T20:10:21.350Z,100231.06
2022-11-03T20:12:50.233Z,100222.75
2022-11-03T20:15:20.870Z,100227.00
2022-11-03T20:17:50.951Z,100215.31
2022-11-03T20:20:22.722Z,100209.66
2022-11-03T20:22:56.097Z,100213.81
2022-11-03T20:25:28.555Z,100207.59
2022-11-03T20:27:59.419Z,100195.50
2022-11-03T20:30:29.659Z,100192.09
2022-11-03T20:32:57.849Z,100186.63
2022-11-03T20:35:28.413Z,100182.69
2022-11-03T20:37:59.965Z,100187.09
2022-11-03T20:40:33.064Z,100163.41
2022-11-03T20:43:03.697Z,100157.13
2022-11-03T20:45:32.724Z,100157.94
2022-11-03T20:48:01.284Z,100156.06
2022-11-03T20:50:31.695Z,100147.53
2022-11-03T20:53:00.693Z,100145.84
2022-11-03T20:55:32.239Z,100151.06
2022-11-03T20:58:00.860Z,100152.31
2022-11-03T21:00:32.038Z,100153.03
2022-11-03T21:03:00.712Z,100153.81
2022-11-03T21:05:29.794Z,100152.97
2022-11-03T21:07:59.699Z,100151.81
2022-11-03T21:10:30.842Z,100142.75
2022-11-03T21:13:01.458Z,100137.53
2022-11-03T21:16:10.624Z,100147.31
2022-11-03T21:18:53.029Z,100145.41
2022-11-03T21:21:22.713Z,100137.59
2022-11-03T21:23:51.027Z,100136.03
2022-11-03T21:26:19.654Z,100131.88
2022-11-03T21:28:49.634Z,100137.28
2022-11-03T21:31:18.006Z,100136.28
2022-11-03T21:33:49.443Z,100121.69
2022-11-03T21:36:18.200Z,100120.41
2022-11-03T21:38:46.615Z,100127.19
2022-11-03T21:41:32.285Z,100123.53
2022-11-03T21:44:19.490Z,100118.75
2022-11-03T21:46:49.359Z,100114.16
2022-11-03T21:49:35.644Z,100114.91
2022-11-03T21:52:04.270Z,100104.34
2022-11-03T21:54:34.562Z,100107.94
2022-11-03T21:57:03.083Z,100099.59
2022-11-03T21:59:32.995Z,100101.78
2022-11-03T22:02:02.467Z,100092.34
2022-11-03T22:04:32.282Z,100093.88
2022-11-03T22:07:02.097Z,100097.38
2022-11-03T22:09:30.519Z,100106.81
2022-11-03T22:11:58.978Z,100104.63
2022-11-03T22:14:47.776Z,100097.19
2022-11-03T22:17:16.773Z,100094.34
2022-11-03T22:20:02.751Z,100098.69
2022-11-03T22:22:49.176Z,100084.13
2022-11-03T22:25:35.608Z,100086.66
2022-11-03T22:28:04.143Z,100082.00
2022-11-03T22:30:52.718Z,100080.06
2022-11-03T22:33:22.514Z,100085.91
2022-11-03T22:36:08.300Z,100080.16
2022-11-03T22:38:55.283Z,100076.84
2022-11-03T22:41:41.501Z,100072.25
2022-11-03T22:44:27.471Z,100066.19
2022-11-03T22:46:58.117Z,100062.31
2022-11-03T22:49:29.315Z,100061.16
2022-11-03T22:51:57.655Z,100062.88
2022-11-03T22:54:26.158Z,100054.47
2022-11-03T22:56:54.414Z,100049.94
2022-11-03T22:59:23.051Z,100054.31
2022-11-03T23:01:51.514Z,100052.38
2022-11-03T23:04:20.158Z,100051.44
2022-11-03T23:06:50.785Z,100043.59
2022-11-03T23:09:19.839Z,100043.06
2022-11-03T23:11:48.348Z,100038.94
2022-11-03T23:14:17.173Z,100036.31
2022-11-03T23:16:46.893Z,100037.16
2022-11-03T23:19:34.706Z,100032.38
2022-11-03T23:22:04.574Z,100033.88
2022-11-03T23:24:54.399Z,100029.53
2022-11-03T23:27:22.815Z,100030.84
2022-11-03T23:29:51.471Z,100023.47
2022-11-03T23:32:21.039Z,100024.78
2022-11-03T23:34:50.149Z,100021.78
2022-11-03T23:37:20.349Z,100007.34
2022-11-03T23:39:48.760Z,99996.34
2022-11-03T23:42:17.153Z,99996.81
2022-11-03T23:45:08.437Z,100001.75
2022-11-03T23:47:54.600Z,100015.06
2022-11-03T23:50:23.202Z,100007.31
2022-11-03T23:52:53.344Z,100002.78
2022-11-03T23:55:21.582Z,100008.22
2022-11-03T23:58:07.968Z,100006.50
